Time;durP1;ratioP1;P1;durP2;ratioP2;P2;SDS_P1;SDS_P2;PMS_P1;PMS_P2;Temp;Humidity;BMP_temperature;BMP_pressure;BME280_temperature;BME280_humidity;BME280_pressure;Samples;Min_cycle;Max_cycle;Signal;HPM_P1;HPM_P2
2022/09/19 00:01:24;;;;;;;3.90;1.37;;;9.20;99.90;;;;;;5030352;28;20389;-81
2022/09/19 00:03:55;;;;;;;3.97;1.63;;;9.20;99.90;;;;;;5030524;28;20067;-81
2022/09/19 00:06:22;;;;;;;2.33;1.40;;;9.20;99.90;;;;;;5029832;28;20033;-81
2022/09/19 00:08:48;;;;;;;3.63;1.73;;;9.10;99.90;;;;;;5030110;28;20060;-82
2022/09/19 00:11:17;;;;;;;4.87;1.50;;;9.10;99.90;;;;;;5029490;28;20057;-81
2022/09/19 00:13:47;;;;;;;3.70;1.50;;;9.10;99.90;;;;;;5029702;28;20128;-81
2022/09/19 00:16:36;;;;;;;3.60;1.80;;;9.10;99.90;;;;;;5029810;28;20030;-82
2022/09/19 00:19:04;;;;;;;4.07;1.60;;;9.20;99.90;;;;;;5029937;28;20104;-81
2022/09/19 00:21:38;;;;;;;5.40;1.40;;;9.20;99.90;;;;;;5029899;28;20132;-82
2022/09/19 00:26:50;;;;;;;;;;;9.30;99.90;;;;;;5030590;28;20176;-82
2022/09/19 00:29:17;;;;;;;2.97;1.50;;;9.20;99.90;;;;;;5029157;28;19917;-81
2022/09/19 00:31:44;;;;;;;4.77;1.67;;;9.10;99.90;;;;;;5029993;28;20029;-82
2022/09/19 00:34:10;;;;;;;4.87;2.00;;;9.10;99.90;;;;;;5029153;28;20033;-81
2022/09/19 00:36:37;;;;;;;5.17;2.00;;;9.00;99.90;;;;;;5029966;28;20041;-81
2022/09/19 00:39:05;;;;;;;5.63;1.87;;;9.00;99.90;;;;;;5030006;28;20034;-81
2022/09/19 00:41:30;;;;;;;5.20;1.70;;;9.00;99.90;;;;;;5029580;28;20800;-81
2022/09/19 00:43:59;;;;;;;3.87;2.03;;;8.90;99.90;;;;;;5029831;28;20033;-81
2022/09/19 00:46:27;;;;;;;3.50;1.70;;;8.90;99.90;;;;;;5029100;28;20542;-81
2022/09/19 00:48:56;;;;;;;5.50;1.87;;;8.90;99.90;;;;;;5027194;28;20184;-81
2022/09/19 00:51:31;;;;;;;4.53;2.07;;;8.80;99.90;;;;;;5030681;28;20036;-81
2022/09/19 00:53:58;;;;;;;4.30;1.90;;;8.80;99.90;;;;;;5033606;28;20485;-80
2022/09/19 00:56:23;;;;;;;6.40;1.80;;;8.80;99.90;;;;;;5033409;28;20056;-80
2022/09/19 00:58:50;;;;;;;3.93;1.70;;;8.80;99.90;;;;;;5032187;28;20034;-80
2022/09/19 01:01:16;;;;;;;4.77;1.70;;;8.80;99.90;;;;;;5033054;28;20041;-81
2022/09/19 01:03:45;;;;;;;4.67;1.60;;;8.80;99.90;;;;;;5032551;28;20482;-80
2022/09/19 01:06:14;;;;;;;3.63;1.60;;;8.70;99.90;;;;;;5031821;28;20412;-80
2022/09/19 01:09:07;;;;;;;5.87;1.93;;;8.70;99.90;;;;;;5031026;28;20037;-80
2022/09/19 01:11:38;;;;;;;3.17;1.90;;;8.70;99.90;;;;;;5031456;28;20025;-80
2022/09/19 01:14:26;;;;;;;4.83;2.13;;;8.70;99.90;;;;;;5030369;28;20102;-80
2022/09/19 01:16:58;;;;;;;5.07;1.80;;;8.70;99.90;;;;;;5028831;28;20104;-81
2022/09/19 01:19:58;;;;;;;3.13;1.77;;;8.70;99.90;;;;;;5030176;28;20036;-80
2022/09/19 01:22:30;;;;;;;6.20;2.23;;;8.70;99.90;;;;;;5029676;28;20462;-81
2022/09/19 01:24:58;;;;;;;4.60;2.20;;;8.60;99.90;;;;;;5028334;28;20037;-81
2022/09/19 01:27:56;;;;;;;4.17;2.00;;;8.60;99.90;;;;;;5026665;28;20080;-81
2022/09/19 01:30:21;;;;;;;3.00;1.30;;;8.60;99.90;;;;;;5027943;28;20034;-81
2022/09/19 01:33:03;;;;;;;5.83;1.60;;;8.50;99.90;;;;;;5028013;28;20041;-80
2022/09/19 01:35:33;;;;;;;3.60;0.93;;;8.50;99.90;;;;;;5028032;28;20033;-80
2022/09/19 01:38:24;;;;;;;1.93;0.80;;;8.30;99.90;;;;;;5028210;28;20021;-80
2022/09/19 01:40:52;;;;;;;2.03;1.00;;;8.20;99.90;;;;;;5027740;28;20022;-80
2022/09/19 01:43:19;;;;;;;0.63;0.60;;;8.10;99.90;;;;;;5028281;28;20029;-80
2022/09/19 01:45:45;;;;;;;2.27;0.90;;;8.10;99.90;;;;;;5027880;28;20519;-80
2022/09/19 01:48:18;;;;;;;1.70;0.70;;;8.00;99.90;;;;;;5027585;28;20025;-80
2022/09/19 01:50:52;;;;;;;1.30;0.70;;;7.90;99.90;;;;;;5028470;28;20100;-80
2022/09/19 01:53:47;;;;;;;1.70;0.80;;;7.90;99.90;;;;;;5027892;28;20040;-80
2022/09/19 01:56:21;;;;;;;0.90;0.90;;;7.80;99.90;;;;;;5027391;28;20064;-80
2022/09/19 01:58:55;;;;;;;0.80;0.70;;;7.80;99.90;;;;;;5027964;28;20534;-80
2022/09/19 02:01:50;;;;;;;0.60;0.60;;;7.80;99.90;;;;;;5027355;28;20070;-80
2022/09/19 02:04:24;;;;;;;1.00;0.80;;;7.80;99.90;;;;;;5027479;28;20030;-80
2022/09/19 02:07:11;;;;;;;3.83;0.73;;;7.70;99.90;;;;;;5027846;28;20052;-80
2022/09/19 02:09:48;;;;;;;1.00;0.90;;;7.70;99.90;;;;;;5027075;28;20040;-80
2022/09/19 02:12:17;;;;;;;0.80;0.80;;;7.70;99.90;;;;;;5027009;28;20025;-80
2022/09/19 02:14:51;;;;;;;3.33;1.00;;;7.70;99.90;;;;;;5027662;28;20029;-80
2022/09/19 02:17:21;;;;;;;1.50;0.90;;;7.70;99.90;;;;;;5027284;28;20120;-80
2022/09/19 02:19:59;;;;;;;2.10;1.20;;;7.70;99.90;;;;;;5027346;28;20094;-80
2022/09/19 02:22:30;;;;;;;1.83;1.10;;;7.70;99.90;;;;;;5026951;28;20021;-80
2022/09/19 02:25:00;;;;;;;2.13;1.10;;;7.60;99.90;;;;;;5026819;28;20756;-80
2022/09/19 02:27:32;;;;;;;1.67;1.10;;;7.70;99.90;;;;;;5026698;28;20486;-81
2022/09/19 02:30:05;;;;;;;1.27;1.10;;;7.70;99.90;;;;;;5027347;28;20033;-80
2022/09/19 02:32:31;;;;;;;1.57;1.10;;;7.60;99.90;;;;;;5027142;28;20025;-80
2022/09/19 02:34:59;;;;;;;2.17;1.13;;;7.60;99.90;;;;;;5026894;28;20032;-80
2022/09/19 02:37:39;;;;;;;1.30;1.00;;;7.60;99.90;;;;;;5026493;28;20032;-81
2022/09/19 02:40:37;;;;;;;2.73;1.60;;;7.60;99.90;;;;;;5027156;28;20486;-81
2022/09/19 02:43:36;;;;;;;1.23;0.90;;;7.60;99.90;;;;;;5026232;28;20030;-80
2022/09/19 02:46:33;;;;;;;1.60;1.20;;;7.60;99.90;;;;;;5026257;28;20060;-79
2022/09/19 02:49:13;;;;;;;1.60;1.03;;;7.60;99.90;;;;;;5026981;28;20481;-79
2022/09/19 02:51:48;;;;;;;1.77;1.20;;;7.50;99.90;;;;;;5027294;28;20195;-79
2022/09/19 02:54:21;;;;;;;0.93;0.93;;;7.50;99.90;;;;;;5026985;28;20382;-78
2022/09/19 02:56:49;;;;;;;1.60;1.13;;;7.50;99.90;;;;;;5025089;28;20187;-78
2022/09/19 02:59:22;;;;;;;3.17;1.10;;;7.50;99.90;;;;;;5026704;28;20497;-78
2022/09/19 03:02:23;;;;;;;1.10;1.00;;;7.40;99.90;;;;;;5026771;28;20025;-79
2022/09/19 03:04:54;;;;;;;5.80;1.20;;;7.40;99.90;;;;;;5026568;28;20047;-79
2022/09/19 03:07:27;;;;;;;2.57;1.20;;;7.40;99.90;;;;;;5027212;28;20421;-78
2022/09/19 03:10:08;;;;;;;3.70;1.00;;;7.40;99.90;;;;;;5026824;28;20021;-79
2022/09/19 03:12:50;;;;;;;1.80;1.10;;;7.40;99.90;;;;;;5027438;28;20075;-78
2022/09/19 03:15:36;;;;;;;1.23;1.00;;;7.40;99.90;;;;;;5026510;28;20021;-78
2022/09/19 03:18:05;;;;;;;1.42;1.00;;;7.40;99.90;;;;;;5026592;28;20026;-78
2022/09/19 03:20:39;;;;;;;1.07;0.97;;;7.30;99.90;;;;;;5026571;28;20068;-78
2022/09/19 03:23:05;;;;;;;1.37;1.00;;;7.30;99.90;;;;;;5027822;28;20083;-78
2022/09/19 03:25:31;;;;;;;1.57;1.00;;;7.30;99.90;;;;;;5030952;28;20040;-78
2022/09/19 03:27:57;;;;;;;2.90;1.27;;;7.20;99.90;;;;;;5031311;28;20037;-78
2022/09/19 03:30:23;;;;;;;1.27;0.90;;;7.20;99.90;;;;;;5030652;28;20112;-78
2022/09/19 03:32:49;;;;;;;2.00;1.00;;;7.20;99.90;;;;;;5031120;28;20040;-78
2022/09/19 03:35:15;;;;;;;3.63;1.00;;;7.10;99.90;;;;;;5030647;28;20034;-78
2022/09/19 03:37:41;;;;;;;1.77;1.10;;;7.10;99.90;;;;;;5030216;28;20036;-78
2022/09/19 03:40:07;;;;;;;2.17;1.00;;;7.00;99.90;;;;;;5030782;28;20037;-79
2022/09/19 03:42:34;;;;;;;3.10;1.10;;;7.00;99.90;;;;;;5030469;28;20463;-79
2022/09/19 03:45:01;;;;;;;2.97;1.00;;;7.00;99.90;;;;;;5030438;28;20026;-79
2022/09/19 03:47:27;;;;;;;2.03;1.00;;;7.00;99.90;;;;;;5030949;28;20508;-79
2022/09/19 03:49:52;;;;;;;3.87;0.90;;;7.00;99.90;;;;;;5030622;28;20116;-79
2022/09/19 03:52:18;;;;;;;2.40;0.87;;;6.90;99.90;;;;;;5030029;28;20116;-78
2022/09/19 03:54:44;;;;;;;4.57;1.13;;;6.90;99.90;;;;;;5030560;28;20068;-79
2022/09/19 03:57:12;;;;;;;8.70;1.20;;;6.90;99.90;;;;;;5030282;28;20077;-78
2022/09/19 03:59:41;;;;;;;1.87;0.90;;;6.90;99.90;;;;;;5029913;28;20052;-79
2022/09/19 04:02:07;;;;;;;2.63;1.00;;;6.90;99.90;;;;;;5030286;28;20556;-78
2022/09/19 04:04:33;;;;;;;2.33;1.00;;;6.80;99.90;;;;;;5030335;28;20035;-79
2022/09/19 04:07:00;;;;;;;4.50;0.90;;;6.80;99.90;;;;;;5030194;28;20021;-78
2022/09/19 04:09:26;;;;;;;4.03;1.07;;;6.80;99.90;;;;;;5030331;28;20394;-79
2022/09/19 04:11:52;;;;;;;5.27;1.10;;;6.90;99.90;;;;;;5029680;28;20029;-79
2022/09/19 04:14:18;;;;;;;3.90;1.10;;;6.80;99.90;;;;;;5029869;28;20079;-78
2022/09/19 04:16:43;;;;;;;4.10;1.43;;;6.80;99.90;;;;;;5029790;28;20372;-79
2022/09/19 04:19:12;;;;;;;4.73;0.90;;;6.80;99.90;;;;;;5030280;28;20910;-79
2022/09/19 04:21:41;;;;;;;2.57;0.90;;;6.80;99.90;;;;;;5030011;28;20077;-79
2022/09/19 04:24:08;;;;;;;4.50;1.00;;;6.80;99.90;;;;;;5029528;28;20087;-79
2022/09/19 04:26:34;;;;;;;4.33;1.00;;;6.80;99.90;;;;;;5029798;28;20030;-79
2022/09/19 04:29:02;;;;;;;3.43;0.90;;;6.70;99.90;;;;;;5029707;28;20048;-79
2022/09/19 04:31:41;;;;;;;1.53;1.00;;;6.70;99.90;;;;;;5029669;28;20091;-79
2022/09/19 04:34:08;;;;;;;3.87;1.00;;;6.70;99.90;;;;;;5029009;28;20465;-79
2022/09/19 04:36:34;;;;;;;3.83;1.10;;;6.70;99.90;;;;;;5029193;28;20034;-79
2022/09/19 04:39:04;;;;;;;4.83;0.97;;;6.70;99.90;;;;;;5029658;28;20391;-79
2022/09/19 04:41:34;;;;;;;4.47;1.10;;;6.70;99.90;;;;;;5029319;28;20038;-78
2022/09/19 04:44:01;;;;;;;3.33;1.00;;;6.60;99.90;;;;;;5028445;28;20405;-79
2022/09/19 04:46:27;;;;;;;4.70;1.30;;;6.60;99.90;;;;;;5028927;28;20140;-76
2022/09/19 04:48:55;;;;;;;4.30;1.10;;;6.70;99.90;;;;;;5029609;28;20043;-76
2022/09/19 04:51:21;;;;;;;5.83;1.20;;;6.60;99.90;;;;;;5030886;28;20127;-76
2022/09/19 04:53:47;;;;;;;4.80;1.20;;;6.70;99.90;;;;;;5030481;28;20116;-76
2022/09/19 04:56:13;;;;;;;3.87;1.00;;;6.70;99.90;;;;;;5030674;28;20064;-76
2022/09/19 04:58:40;;;;;;;4.00;1.23;;;6.70;99.90;;;;;;5030494;28;20045;-76
2022/09/19 05:01:07;;;;;;;4.93;1.20;;;6.70;99.90;;;;;;5030250;28;20025;-76
2022/09/19 05:03:33;;;;;;;3.60;1.10;;;6.70;99.90;;;;;;5030311;28;20466;-76
2022/09/19 05:06:00;;;;;;;8.73;1.20;;;6.70;99.90;;;;;;5030325;28;20552;-76
2022/09/19 05:08:28;;;;;;;4.70;1.67;;;6.80;99.90;;;;;;5029790;28;20041;-76
2022/09/19 05:10:55;;;;;;;3.43;1.03;;;6.80;99.90;;;;;;5029730;28;20030;-76
2022/09/19 05:13:23;;;;;;;3.67;1.30;;;6.80;99.90;;;;;;5030006;28;20115;-76
2022/09/19 05:15:51;;;;;;;5.80;1.20;;;6.80;99.90;;;;;;5029539;28;20040;-76
2022/09/19 05:18:19;;;;;;;5.70;1.17;;;6.80;99.90;;;;;;5030160;28;20530;-76
2022/09/19 05:20:44;;;;;;;8.23;1.20;;;6.80;99.90;;;;;;5030234;28;20486;-77
2022/09/19 05:23:10;;;;;;;5.77;1.40;;;6.80;99.90;;;;;;5030017;28;20033;-77
2022/09/19 05:25:38;;;;;;;5.93;1.30;;;6.90;99.90;;;;;;5030184;28;20101;-77
2022/09/19 05:28:06;;;;;;;6.17;1.20;;;7.00;99.90;;;;;;5029671;28;20240;-77
2022/09/19 05:30:33;;;;;;;4.43;1.10;;;7.00;99.90;;;;;;5029676;28;20026;-77
2022/09/19 05:33:02;;;;;;;5.27;1.10;;;7.10;99.90;;;;;;5029557;28;20180;-77
2022/09/19 05:35:29;;;;;;;6.33;1.33;;;7.20;99.90;;;;;;5029799;28;20559;-77
2022/09/19 05:37:54;;;;;;;5.30;1.30;;;7.20;99.90;;;;;;5029613;28;20025;-77
2022/09/19 05:40:20;;;;;;;5.17;1.30;;;7.20;99.90;;;;;;5029844;28;20790;-77
2022/09/19 05:42:51;;;;;;;4.00;1.20;;;7.20;99.90;;;;;;5030060;28;20026;-76
2022/09/19 05:45:17;;;;;;;7.97;1.60;;;7.20;99.90;;;;;;5029155;28;20056;-77
2022/09/19 05:47:42;;;;;;;5.17;1.37;;;7.30;99.90;;;;;;5028956;28;20558;-77
2022/09/19 05:50:11;;;;;;;7.17;1.50;;;7.30;99.90;;;;;;5029606;28;20061;-77
2022/09/19 05:55:24;;;;;;;4.57;1.50;;;7.40;99.90;;;;;;5029926;28;20546;-76
2022/09/19 05:57:59;;;;;;;5.87;1.50;;;7.40;99.90;;;;;;5029610;28;20598;-76
2022/09/19 06:00:26;;;;;;;7.80;1.83;;;7.40;99.90;;;;;;5028555;28;20022;-77
2022/09/19 06:02:54;;;;;;;6.70;1.50;;;7.40;99.90;;;;;;5029452;28;20053;-76
2022/09/19 06:05:20;;;;;;;7.23;1.53;;;7.50;99.90;;;;;;5029061;28;20504;-76
2022/09/19 06:07:46;;;;;;;5.40;1.40;;;7.50;99.90;;;;;;5029425;28;20087;-76
2022/09/19 06:10:12;;;;;;;9.00;1.90;;;7.60;99.90;;;;;;5029339;28;20517;-76
2022/09/19 06:12:38;;;;;;;9.00;1.43;;;7.60;99.90;;;;;;5029314;28;20484;-77
2022/09/19 06:15:04;;;;;;;9.03;1.80;;;7.60;99.90;;;;;;5028376;28;20033;-76
2022/09/19 06:17:30;;;;;;;7.63;1.70;;;7.60;99.90;;;;;;5029277;28;20482;-76
2022/09/19 06:19:56;;;;;;;16.97;2.60;;;7.70;99.90;;;;;;5028949;28;20234;-76
2022/09/19 06:22:21;;;;;;;8.17;1.90;;;7.70;99.90;;;;;;5029110;28;20061;-76
2022/09/19 06:24:47;;;;;;;7.03;1.73;;;7.70;99.90;;;;;;5029052;28;20465;-76
2022/09/19 06:27:12;;;;;;;12.07;2.10;;;7.80;99.90;;;;;;5028283;28;20025;-76
2022/09/19 06:29:38;;;;;;;11.40;1.63;;;7.80;99.90;;;;;;5029479;28;20041;-76
2022/09/19 06:32:04;;;;;;;7.07;1.47;;;8.00;99.90;;;;;;5029333;28;20037;-76
2022/09/19 06:34:29;;;;;;;9.00;1.70;;;8.10;99.90;;;;;;5028143;28;20108;-76
2022/09/19 06:36:56;;;;;;;5.37;1.27;;;8.10;99.90;;;;;;5028951;28;20037;-76
2022/09/19 06:39:22;;;;;;;11.47;2.40;;;8.20;99.90;;;;;;5028927;28;20036;-76
2022/09/19 06:41:47;;;;;;;8.67;1.80;;;8.20;99.90;;;;;;5028753;28;20393;-76
2022/09/19 06:44:14;;;;;;;6.10;1.50;;;8.30;99.90;;;;;;5027959;28;20099;-77
2022/09/19 06:46:39;;;;;;;9.70;1.97;;;8.30;99.90;;;;;;5028526;28;20059;-76
2022/09/19 06:49:09;;;;;;;10.00;1.83;;;8.30;99.90;;;;;;5029279;28;20447;-77
2022/09/19 06:51:35;;;;;;;8.70;1.50;;;8.30;99.90;;;;;;5028581;28;20411;-76
2022/09/19 06:54:01;;;;;;;9.70;1.73;;;8.30;99.90;;;;;;5027995;28;20489;-76
2022/09/19 06:56:26;;;;;;;8.53;2.20;;;8.40;99.90;;;;;;5028250;28;20057;-77
2022/09/19 06:58:52;;;;;;;7.97;1.40;;;8.50;99.90;;;;;;5028034;28;20076;-76
2022/09/19 07:01:18;;;;;;;7.17;1.50;;;8.50;99.90;;;;;;5028365;28;20033;-76
2022/09/19 07:03:43;;;;;;;7.37;1.87;;;8.60;99.90;;;;;;5028548;28;20033;-76
2022/09/19 07:06:09;;;;;;;6.13;1.83;;;8.50;99.90;;;;;;5028639;28;20486;-76
2022/09/19 07:08:34;;;;;;;6.47;1.50;;;8.50;99.90;;;;;;5028718;28;20037;-76
2022/09/19 07:11:00;;;;;;;8.37;1.77;;;8.50;99.90;;;;;;5028739;28;20038;-76
2022/09/19 07:13:26;;;;;;;8.00;1.90;;;8.50;99.90;;;;;;5028545;28;20041;-76
2022/09/19 07:15:52;;;;;;;7.10;2.40;;;8.50;99.90;;;;;;5028330;28;20041;-76
2022/09/19 07:18:18;;;;;;;9.13;1.83;;;8.50;99.90;;;;;;5027792;28;20036;-76
2022/09/19 07:20:44;;;;;;;8.77;1.60;;;8.50;99.90;;;;;;5028020;28;20029;-76
2022/09/19 07:23:17;;;;;;;9.27;1.80;;;8.50;99.90;;;;;;5027836;28;20043;-77
2022/09/19 07:25:43;;;;;;;8.77;1.60;;;8.60;99.90;;;;;;5028656;28;20030;-76
2022/09/19 07:28:15;;;;;;;9.67;2.23;;;8.60;99.90;;;;;;5028480;28;20479;-76
2022/09/19 07:30:43;;;;;;;12.23;2.00;;;8.70;99.90;;;;;;5028085;28;20099;-76
2022/09/19 07:33:14;;;;;;;5.60;1.60;;;8.80;99.90;;;;;;5028453;28;20032;-76
2022/09/19 07:35:41;;;;;;;7.43;1.83;;;8.80;99.90;;;;;;5028010;28;20025;-76
2022/09/19 07:38:10;;;;;;;7.53;1.50;;;8.90;99.90;;;;;;5027836;28;20086;-76
2022/09/19 07:40:37;;;;;;;6.13;1.60;;;8.90;99.90;;;;;;5027745;28;20033;-76
2022/09/19 07:43:04;;;;;;;5.47;1.30;;;9.10;99.90;;;;;;5028558;28;20030;-76
2022/09/19 07:45:33;;;;;;;7.40;1.87;;;9.10;99.90;;;;;;5028204;28;20029;-76
2022/09/19 07:47:58;;;;;;;8.10;1.60;;;9.10;99.90;;;;;;5028539;28;20140;-76
2022/09/19 07:50:24;;;;;;;7.97;1.70;;;9.10;99.90;;;;;;5028862;28;20598;-76
2022/09/19 07:53:01;;;;;;;4.40;1.60;;;9.10;99.90;;;;;;5028147;28;20025;-76
2022/09/19 07:55:28;;;;;;;9.10;1.50;;;9.10;99.90;;;;;;5028371;28;20041;-76
2022/09/19 07:57:55;;;;;;;5.23;1.40;;;9.20;99.90;;;;;;5028261;28;20055;-76
2022/09/19 08:00:25;;;;;;;8.93;2.73;;;9.30;99.90;;;;;;5028500;28;20041;-76
2022/09/19 08:02:58;;;;;;;5.57;1.90;;;9.30;99.90;;;;;;5028381;28;20033;-77
2022/09/19 08:05:26;;;;;;;7.77;1.63;;;9.40;99.90;;;;;;5028417;28;20086;-77
2022/09/19 08:07:52;;;;;;;7.43;1.77;;;9.40;99.90;;;;;;5027762;28;20163;-76
2022/09/19 08:10:18;;;;;;;7.43;1.37;;;9.50;99.90;;;;;;5030641;28;20116;-76
2022/09/19 08:12:44;;;;;;;11.73;2.30;;;9.50;99.90;;;;;;5031561;28;20033;-76
2022/09/19 08:15:15;;;;;;;7.40;1.53;;;9.60;99.90;;;;;;5032078;28;20033;-76
2022/09/19 08:17:59;;;;;;;4.13;1.23;;;9.60;99.90;;;;;;5031708;28;20030;-76
2022/09/19 08:20:26;;;;;;;9.90;2.70;;;9.60;99.90;;;;;;5031438;28;20173;-77
2022/09/19 08:22:56;;;;;;;9.10;2.13;;;9.60;99.90;;;;;;5031350;28;20022;-76
2022/09/19 08:25:23;;;;;;;8.00;1.90;;;9.60;99.90;;;;;;5031459;28;20029;-76
2022/09/19 08:27:50;;;;;;;8.73;1.77;;;9.60;99.90;;;;;;5031173;28;20487;-76
2022/09/19 08:30:17;;;;;;;10.93;1.73;;;9.70;99.90;;;;;;5030838;28;20065;-77
2022/09/19 08:32:47;;;;;;;8.57;1.70;;;9.80;99.90;;;;;;5030960;28;20029;-76
2022/09/19 08:35:15;;;;;;;6.63;1.93;;;9.80;99.90;;;;;;5031122;28;20037;-76
2022/09/19 08:37:41;;;;;;;4.70;1.60;;;10.00;99.90;;;;;;5030732;28;20091;-76
2022/09/19 08:40:17;;;;;;;8.03;1.87;;;10.00;99.90;;;;;;5031056;28;20515;-77
2022/09/19 08:42:47;;;;;;;7.53;1.60;;;10.10;99.90;;;;;;5031394;28;20029;-76
2022/09/19 08:45:44;;;;;;;4.60;1.40;;;10.00;99.90;;;;;;5030702;28;20127;-76
2022/09/19 08:48:19;;;;;;;7.80;1.60;;;10.00;99.90;;;;;;5031073;28;20111;-76
2022/09/19 08:50:56;;;;;;;8.93;1.60;;;10.00;99.90;;;;;;5030959;28;20033;-76
2022/09/19 08:53:28;;;;;;;4.87;1.53;;;10.20;99.90;;;;;;5030873;28;20030;-77
2022/09/19 08:55:56;;;;;;;8.47;1.67;;;10.30;99.90;;;;;;5030472;28;20041;-77
2022/09/19 08:58:24;;;;;;;8.67;1.30;;;10.50;99.90;;;;;;5030530;28;20045;-76
2022/09/19 09:00:51;;;;;;;9.43;2.13;;;10.50;99.90;;;;;;5030708;28;20033;-76
2022/09/19 09:03:24;;;;;;;8.77;2.10;;;10.60;99.90;;;;;;5031457;28;20017;-76
2022/09/19 09:06:18;;;;;;;4.77;1.70;;;10.70;99.90;;;;;;5030548;28;20026;-77
2022/09/19 09:08:58;;;;;;;8.53;1.90;;;10.70;99.90;;;;;;5031129;28;20022;-76
2022/09/19 09:11:49;;;;;;;7.17;1.73;;;10.80;99.90;;;;;;5031066;28;20135;-76
2022/09/19 09:14:40;;;;;;;4.88;1.50;;;10.90;99.90;;;;;;5030834;28;20076;-76
2022/09/19 09:17:36;;;;;;;6.37;2.07;;;10.90;99.90;;;;;;5028819;28;20130;-76
2022/09/19 09:20:14;;;;;;;4.18;1.23;;;10.90;99.90;;;;;;5030537;28;20140;-77
2022/09/19 09:22:47;;;;;;;7.43;1.65;;;10.90;99.90;;;;;;5030024;28;20025;-76
2022/09/19 09:25:30;;;;;;;6.60;1.30;;;10.80;99.90;;;;;;5030268;28;20029;-76
2022/09/19 09:28:12;;;;;;;5.55;1.50;;;10.80;99.90;;;;;;5030657;28;20561;-76
2022/09/19 09:30:43;;;;;;;5.82;1.60;;;10.70;99.90;;;;;;5030429;28;20025;-76
2022/09/19 09:33:21;;;;;;;5.25;1.40;;;10.70;99.90;;;;;;5031031;28;20378;-76
2022/09/19 09:35:54;;;;;;;4.60;1.77;;;10.60;99.90;;;;;;5030703;28;20049;-76
2022/09/19 09:38:30;;;;;;;6.87;2.10;;;10.60;99.90;;;;;;5030824;28;20021;-76
2022/09/19 09:44:19;;;;;;;4.77;1.50;;;10.60;99.90;;;;;;5031378;28;20409;-75
2022/09/19 09:47:04;;;;;;;12.57;1.85;;;10.70;99.90;;;;;;5030883;28;20403;-75
2022/09/19 09:49:30;;;;;;;6.07;1.58;;;10.80;99.90;;;;;;5030277;28;20029;-76
2022/09/19 09:52:31;;;;;;;4.72;1.65;;;10.80;99.90;;;;;;5028525;28;20036;-76
2022/09/19 09:58:19;;;;;;;10.75;1.50;;;11.10;99.90;;;;;;5028306;28;20045;-76
2022/09/19 10:03:49;;;;;;;8.27;1.77;;;11.40;99.90;;;;;;5028727;28;20033;-76
2022/09/19 10:06:27;;;;;;;6.22;1.67;;;11.40;99.90;;;;;;5029790;28;20026;-76
2022/09/19 10:09:02;;;;;;;7.38;2.25;;;11.50;99.90;;;;;;5029876;28;20076;-76
2022/09/19 10:11:48;;;;;;;7.53;1.90;;;11.50;99.90;;;;;;5029919;28;20104;-76
2022/09/19 10:14:20;;;;;;;4.53;1.40;;;11.40;99.90;;;;;;5029899;28;20042;-76
2022/09/19 10:16:52;;;;;;;6.45;1.98;;;11.50;99.90;;;;;;5029919;28;20029;-76
2022/09/19 10:19:27;;;;;;;4.50;1.20;;;11.60;99.90;;;;;;5030006;28;20164;-76
2022/09/19 10:21:56;;;;;;;8.13;1.50;;;11.60;99.90;;;;;;5029731;28;20064;-75
2022/09/19 10:24:45;;;;;;;5.15;1.55;;;11.60;99.90;;;;;;5030017;28;20747;-76
2022/09/19 10:27:31;;;;;;;6.20;1.45;;;11.70;99.90;;;;;;5029899;28;20137;-76
2022/09/19 10:29:59;;;;;;;3.15;1.13;;;11.80;99.90;;;;;;5028026;28;20030;-76
2022/09/19 10:32:34;;;;;;;6.47;2.17;;;11.90;99.90;;;;;;5026900;28;20022;-76
2022/09/19 10:35:00;;;;;;;5.93;1.45;;;11.90;99.90;;;;;;5027828;28;20025;-76
2022/09/19 10:37:27;;;;;;;3.08;1.27;;;12.00;99.90;;;;;;5027794;28;20033;-76
2022/09/19 10:40:02;;;;;;;11.40;3.00;;;12.00;99.90;;;;;;5027278;28;20033;-76
2022/09/19 10:42:40;;;;;;;7.47;1.52;;;12.00;99.90;;;;;;5027700;28;20899;-76
2022/09/19 10:45:18;;;;;;;8.35;1.65;;;12.00;99.90;;;;;;5027918;28;20089;-76
2022/09/19 10:47:44;;;;;;;6.72;1.52;;;12.10;99.90;;;;;;5026913;28;20025;-76
2022/09/19 10:50:16;;;;;;;5.93;1.60;;;12.20;99.90;;;;;;5027076;28;20041;-76
2022/09/19 10:52:44;;;;;;;4.55;1.42;;;12.30;99.90;;;;;;5027060;28;20395;-76
2022/09/19 10:55:18;;;;;;;5.20;1.50;;;12.40;99.90;;;;;;5027009;28;20022;-76
2022/09/19 10:57:49;;;;;;;3.55;1.48;;;12.70;99.90;;;;;;5027537;28;20073;-76
2022/09/19 11:00:22;;;;;;;6.65;1.60;;;12.90;99.90;;;;;;5027544;28;20867;-76
2022/09/19 11:03:05;;;;;;;2.85;1.10;;;13.00;99.90;;;;;;5027164;28;20030;-76
2022/09/19 11:05:33;;;;;;;7.50;1.70;;;13.00;99.90;;;;;;5027088;28;20025;-76
2022/09/19 11:08:00;;;;;;;6.38;2.45;;;13.00;99.90;;;;;;5027436;28;20489;-76
2022/09/19 11:10:33;;;;;;;4.60;1.25;;;13.10;99.90;;;;;;5027387;28;20045;-76
2022/09/19 11:13:15;;;;;;;7.22;1.67;;;13.20;99.90;;;;;;5028229;28;20036;-77
2022/09/19 11:15:59;;;;;;;6.00;1.55;;;13.30;99.90;;;;;;5029513;28;20030;-77
2022/09/19 11:19:12;;;;;;;5.72;1.30;;;13.40;99.90;;;;;;5028324;28;20025;-77
2022/09/19 11:21:59;;;;;;;6.32;1.60;;;13.50;99.90;;;;;;5028768;28;20029;-76
2022/09/19 11:24:44;;;;;;;4.80;1.23;;;13.60;99.90;;;;;;5028540;28;20136;-77
2022/09/19 11:27:25;;;;;;;5.63;1.38;;;13.80;99.90;;;;;;5027843;28;20037;-77
2022/09/19 11:30:11;;;;;;;4.78;1.30;;;14.10;99.90;;;;;;5027874;28;20079;-77
2022/09/19 11:32:57;;;;;;;4.25;1.20;;;14.10;99.90;;;;;;5028340;28;20022;-77
2022/09/19 11:35:28;;;;;;;5.18;1.42;;;14.20;99.90;;;;;;5027749;28;20039;-77
2022/09/19 11:38:08;;;;;;;3.10;1.20;;;14.30;99.90;;;;;;5028076;28;20033;-77
2022/09/19 11:41:08;;;;;;;4.13;1.60;;;14.20;99.90;;;;;;5027485;28;20095;-77
2022/09/19 11:43:45;;;;;;;4.97;1.45;;;14.00;99.90;;;;;;5027676;28;20040;-77
2022/09/19 11:46:32;;;;;;;3.47;1.00;;;13.90;99.90;;;;;;5032432;28;20068;-78
2022/09/19 11:49:18;;;;;;;6.88;1.77;;;13.70;99.90;;;;;;5032488;28;20455;-77
2022/09/19 11:52:01;;;;;;;5.80;1.30;;;13.70;99.90;;;;;;5031845;28;20025;-77
2022/09/19 11:54:48;;;;;;;2.83;0.98;;;13.60;99.90;;;;;;5031614;28;20469;-77
2022/09/19 11:57:37;;;;;;;7.10;1.80;;;13.40;99.90;;;;;;5031414;28;20092;-77
2022/09/19 12:00:20;;;;;;;3.88;1.00;;;13.40;99.90;;;;;;5030641;28;20057;-77
2022/09/19 12:03:10;;;;;;;4.35;1.48;;;13.50;99.90;;;;;;5030352;28;20528;-77
2022/09/19 12:06:13;;;;;;;5.75;1.33;;;13.50;99.90;;;;;;5031587;28;20029;-77
2022/09/19 12:09:04;;;;;;;5.68;1.30;;;13.70;99.90;;;;;;5031657;28;20097;-77
2022/09/19 12:11:44;;;;;;;6.00;1.10;;;13.80;99.90;;;;;;5031592;28;20109;-77
2022/09/19 12:14:39;;;;;;;3.83;1.20;;;13.80;99.90;;;;;;5031130;28;20027;-77
2022/09/19 12:17:28;;;;;;;1.58;1.00;;;13.90;99.90;;;;;;5031738;28;20018;-77
2022/09/19 12:20:13;;;;;;;6.15;1.15;;;13.80;99.90;;;;;;5031043;28;20048;-77
2022/09/19 12:22:50;;;;;;;2.63;0.90;;;13.90;99.90;;;;;;5031312;28;20474;-77
2022/09/19 12:25:29;;;;;;;4.38;1.05;;;14.00;99.90;;;;;;5031404;28;20033;-77
2022/09/19 12:28:07;;;;;;;4.07;1.00;;;14.00;99.90;;;;;;5031067;28;20364;-77
2022/09/19 12:30:41;;;;;;;4.93;1.13;;;13.90;99.90;;;;;;5031303;28;20057;-77
2022/09/19 12:33:33;;;;;;;5.00;1.90;;;13.90;99.90;;;;;;5031291;28;20033;-77
2022/09/19 12:36:23;;;;;;;6.07;1.42;;;13.70;99.90;;;;;;5031278;28;20028;-77
2022/09/19 12:38:50;;;;;;;3.67;1.73;;;13.70;99.90;;;;;;5031067;28;20042;-77
2022/09/19 12:41:18;;;;;;;4.00;1.20;;;13.80;99.90;;;;;;5030798;28;20382;-77
2022/09/19 12:44:01;;;;;;;4.95;1.30;;;13.70;99.90;;;;;;5031404;28;20471;-77
2022/09/19 12:46:36;;;;;;;3.78;1.17;;;13.70;99.90;;;;;;5030563;28;20034;-77
2022/09/19 12:49:22;;;;;;;3.80;1.50;;;13.70;99.90;;;;;;5030631;28;20033;-77
2022/09/19 12:51:55;;;;;;;3.05;1.10;;;13.70;99.90;;;;;;5030874;28;20037;-77
2022/09/19 12:54:28;;;;;;;3.55;1.30;;;13.60;99.90;;;;;;5030608;28;20040;-76
2022/09/19 12:57:05;;;;;;;4.20;1.17;;;13.60;99.90;;;;;;5028567;28;20062;-76
2022/09/19 12:59:33;;;;;;;3.22;0.90;;;13.70;99.90;;;;;;5029260;28;20099;-76
2022/09/19 13:02:21;;;;;;;3.95;1.10;;;13.80;99.90;;;;;;5029437;28;20072;-76
2022/09/19 13:04:59;;;;;;;3.40;1.05;;;14.10;99.90;;;;;;5029561;28;20032;-76
2022/09/19 13:07:37;;;;;;;4.95;1.27;;;14.20;99.90;;;;;;5028749;28;20074;-76
2022/09/19 13:10:08;;;;;;;2.75;1.20;;;14.20;99.90;;;;;;5028849;28;20033;-76
2022/09/19 13:12:44;;;;;;;3.05;1.23;;;14.30;99.90;;;;;;5029051;28;20031;-76
2022/09/19 13:15:18;;;;;;;5.07;1.20;;;14.30;99.90;;;;;;5029634;28;20065;-76
2022/09/19 13:23:35;;;;;;;4.40;1.95;;;13.80;99.90;;;;;;5028635;28;20071;-76
2022/09/19 13:26:16;;;;;;;3.17;1.20;;;13.60;99.90;;;;;;5028650;28;20040;-76
2022/09/19 13:29:39;;;;;;;3.75;1.27;;;13.60;99.90;;;;;;5029059;28;20033;-76
2022/09/19 13:32:26;;;;;;;3.55;1.50;;;13.50;99.90;;;;;;5028019;28;20077;-76
2022/09/19 13:35:16;;;;;;;6.22;2.10;;;13.50;99.90;;;;;;5028855;28;20021;-76
2022/09/19 13:37:45;;;;;;;5.72;1.38;;;13.30;99.90;;;;;;5028201;28;20036;-76
2022/09/19 13:40:39;;;;;;;4.60;1.75;;;13.20;99.90;;;;;;5026944;28;20129;-76
2022/09/19 13:43:16;;;;;;;4.25;1.15;;;13.10;99.90;;;;;;5028008;28;20064;-77
2022/09/19 13:46:00;;;;;;;2.63;1.00;;;13.00;99.90;;;;;;5027960;28;20025;-76